sensor_id;sensor_type;location;lat;lon;timestamp;P1;durP1;ratioP1;P2;durP2;ratioP2
62110;SDS011;48102;47.526;19.072;2023-11-22T04:40:26;10.27;;;7.05;;
62110;SDS011;48102;47.526;19.072;2023-11-22T04:43:30;10.43;;;6.57;;
62110;SDS011;48102;47.526;19.072;2023-11-22T04:46:33;12.00;;;7.32;;
62110;SDS011;48102;47.526;19.072;2023-11-22T04:49:36;13.30;;;7.57;;
62110;SDS011;48102;47.526;19.072;2023-11-22T04:52:39;7.37;;;6.18;;
62110;SDS011;48102;47.526;19.072;2023-11-22T04:55:42;8.77;;;6.65;;
62110;SDS011;48102;47.526;19.072;2023-11-22T04:58:45;8.90;;;6.18;;
62110;SDS011;48102;47.526;19.072;2023-11-22T05:04:51;8.17;;;6.27;;
62110;SDS011;48102;47.526;19.072;2023-11-22T05:07:55;8.60;;;6.37;;
62110;SDS011;48102;47.526;19.072;2023-11-22T05:10:58;9.07;;;6.30;;
62110;SDS011;48102;47.526;19.072;2023-11-22T05:14:01;9.75;;;6.37;;
62110;SDS011;48102;47.526;19.072;2023-11-22T05:17:04;10.40;;;7.03;;
62110;SDS011;48102;47.526;19.072;2023-11-22T05:20:07;10.07;;;6.35;;
62110;SDS011;48102;47.526;19.072;2023-11-22T05:23:14;9.73;;;6.12;;
62110;SDS011;48102;47.526;19.072;2023-11-22T05:26:17;10.25;;;6.37;;
62110;SDS011;48102;47.526;19.072;2023-11-22T05:29:20;8.75;;;5.75;;
62110;SDS011;48102;47.526;19.072;2023-11-22T05:32:25;7.35;;;5.60;;
62110;SDS011;48102;47.526;19.072;2023-11-22T05:35:28;9.23;;;6.00;;
62110;SDS011;48102;47.526;19.072;2023-11-22T05:38:31;8.70;;;5.55;;
62110;SDS011;48102;47.526;19.072;2023-11-22T05:41:36;7.18;;;5.00;;
62110;SDS011;48102;47.526;19.072;2023-11-22T05:47:42;4.68;;;3.80;;
62110;SDS011;48102;47.526;19.072;2023-11-22T05:50:46;3.92;;;3.50;;
62110;SDS011;48102;47.526;19.072;2023-11-22T05:53:49;5.15;;;3.70;;
62110;SDS011;48102;47.526;19.072;2023-11-22T05:56:52;5.57;;;4.18;;
62110;SDS011;48102;47.526;19.072;2023-11-22T05:59:56;4.35;;;3.40;;
62110;SDS011;48102;47.526;19.072;2023-11-22T06:03:00;5.97;;;4.05;;
62110;SDS011;48102;47.526;19.072;2023-11-22T06:06:03;5.47;;;4.45;;
62110;SDS011;48102;47.526;19.072;2023-11-22T06:09:06;5.40;;;4.05;;
62110;SDS011;48102;47.526;19.072;2023-11-22T06:12:09;5.22;;;3.87;;
62110;SDS011;48102;47.526;19.072;2023-11-22T06:15:12;6.47;;;4.12;;
62110;SDS011;48102;47.526;19.072;2023-11-22T06:18:15;5.87;;;4.30;;
62110;SDS011;48102;47.526;19.072;2023-11-22T06:21:21;8.13;;;3.78;;
62110;SDS011;48102;47.526;19.072;2023-11-22T06:24:27;4.35;;;3.67;;
62110;SDS011;48102;47.526;19.072;2023-11-22T06:27:30;4.87;;;3.78;;
62110;SDS011;48102;47.526;19.072;2023-11-22T06:30:35;3.90;;;3.50;;
62110;SDS011;48102;47.526;19.072;2023-11-22T06:33:37;4.68;;;3.45;;
62110;SDS011;48102;47.526;19.072;2023-11-22T06:36:41;4.20;;;3.47;;
62110;SDS011;48102;47.526;19.072;2023-11-22T06:39:43;4.68;;;3.62;;
62110;SDS011;48102;47.526;19.072;2023-11-22T06:42:49;3.22;;;2.80;;
62110;SDS011;48102;47.526;19.072;2023-11-22T06:45:52;8.73;;;3.58;;
62110;SDS011;48102;47.526;19.072;2023-11-22T06:48:55;4.72;;;3.45;;
62110;SDS011;48102;47.526;19.072;2023-11-22T06:51:59;4.55;;;3.42;;
62110;SDS011;48102;47.526;19.072;2023-11-22T06:55:02;5.00;;;3.37;;
62110;SDS011;48102;47.526;19.072;2023-11-22T06:58:05;7.18;;;3.03;;
62110;SDS011;48102;47.526;19.072;2023-11-22T07:01:10;4.70;;;3.17;;
62110;SDS011;48102;47.526;19.072;2023-11-22T07:04:17;7.68;;;3.85;;
62110;SDS011;48102;47.526;19.072;2023-11-22T07:10:23;4.50;;;3.50;;
62110;SDS011;48102;47.526;19.072;2023-11-22T07:13:27;3.65;;;3.35;;
62110;SDS011;48102;47.526;19.072;2023-11-22T07:16:30;4.82;;;3.60;;
62110;SDS011;48102;47.526;19.072;2023-11-22T07:19:34;3.78;;;2.97;;
62110;SDS011;48102;47.526;19.072;2023-11-22T07:22:40;4.80;;;3.05;;
62110;SDS011;48102;47.526;19.072;2023-11-22T07:25:45;3.83;;;3.10;;
62110;SDS011;48102;47.526;19.072;2023-11-22T07:28:48;4.80;;;3.47;;
62110;SDS011;48102;47.526;19.072;2023-11-22T07:31:51;4.20;;;3.12;;
62110;SDS011;48102;47.526;19.072;2023-11-22T07:34:54;7.03;;;3.92;;
62110;SDS011;48102;47.526;19.072;2023-11-22T07:37:58;4.72;;;3.58;;
62110;SDS011;48102;47.526;19.072;2023-11-22T07:41:01;6.47;;;3.58;;
62110;SDS011;48102;47.526;19.072;2023-11-22T07:47:07;4.55;;;3.45;;
62110;SDS011;48102;47.526;19.072;2023-11-22T07:50:12;5.28;;;3.72;;
62110;SDS011;48102;47.526;19.072;2023-11-22T07:53:17;7.22;;;3.90;;
62110;SDS011;48102;47.526;19.072;2023-11-22T07:56:21;6.20;;;4.30;;
62110;SDS011;48102;47.526;19.072;2023-11-22T07:59:24;9.27;;;3.85;;
62110;SDS011;48102;47.526;19.072;2023-11-22T08:02:27;11.15;;;3.72;;
62110;SDS011;48102;47.526;19.072;2023-11-22T08:05:31;7.18;;;4.03;;
62110;SDS011;48102;47.526;19.072;2023-11-22T08:08:39;9.38;;;4.07;;
62110;SDS011;48102;47.526;19.072;2023-11-22T08:11:43;6.25;;;3.92;;
62110;SDS011;48102;47.526;19.072;2023-11-22T08:14:46;5.20;;;3.22;;
62110;SDS011;48102;47.526;19.072;2023-11-22T08:17:49;6.45;;;4.03;;
62110;SDS011;48102;47.526;19.072;2023-11-22T08:23:55;5.25;;;3.60;;
62110;SDS011;48102;47.526;19.072;2023-11-22T08:26:58;9.45;;;3.58;;
62110;SDS011;48102;47.526;19.072;2023-11-22T08:30:01;5.07;;;3.65;;
62110;SDS011;48102;47.526;19.072;2023-11-22T08:33:07;4.82;;;3.00;;
62110;SDS011;48102;47.526;19.072;2023-11-22T08:36:10;6.28;;;4.00;;
62110;SDS011;48102;47.526;19.072;2023-11-22T08:39:13;5.80;;;3.78;;
62110;SDS011;48102;47.526;19.072;2023-11-22T08:42:16;4.93;;;3.60;;
62110;SDS011;48102;47.526;19.072;2023-11-22T08:45:20;4.37;;;3.70;;
62110;SDS011;48102;47.526;19.072;2023-11-22T08:48:23;5.30;;;3.83;;
62110;SDS011;48102;47.526;19.072;2023-11-22T08:51:27;4.57;;;3.58;;
62110;SDS011;48102;47.526;19.072;2023-11-22T08:57:37;4.53;;;3.47;;
62110;SDS011;48102;47.526;19.072;2023-11-22T09:00:40;5.80;;;3.17;;
62110;SDS011;48102;47.526;19.072;2023-11-22T09:03:44;4.57;;;3.10;;
62110;SDS011;48102;47.526;19.072;2023-11-22T09:09:50;5.65;;;3.50;;
62110;SDS011;48102;47.526;19.072;2023-11-22T09:16:18;4.10;;;3.35;;
62110;SDS011;48102;47.526;19.072;2023-11-22T09:19:24;3.45;;;2.92;;
62110;SDS011;48102;47.526;19.072;2023-11-22T09:22:27;3.92;;;2.42;;
62110;SDS011;48102;47.526;19.072;2023-11-22T09:28:35;3.15;;;2.55;;
62110;SDS011;48102;47.526;19.072;2023-11-22T09:31:39;4.12;;;3.00;;
62110;SDS011;48102;47.526;19.072;2023-11-22T09:34:44;8.48;;;3.20;;
62110;SDS011;48102;47.526;19.072;2023-11-22T09:37:48;3.35;;;2.67;;
62110;SDS011;48102;47.526;19.072;2023-11-22T09:40:52;4.03;;;2.60;;
62110;SDS011;48102;47.526;19.072;2023-11-22T09:43:55;3.67;;;3.00;;
62110;SDS011;48102;47.526;19.072;2023-11-22T09:46:58;5.18;;;3.47;;
62110;SDS011;48102;47.526;19.072;2023-11-22T09:53:10;4.82;;;3.40;;
62110;SDS011;48102;47.526;19.072;2023-11-22T09:56:17;5.72;;;2.70;;
62110;SDS011;48102;47.526;19.072;2023-11-22T09:59:21;3.60;;;3.03;;
62110;SDS011;48102;47.526;19.072;2023-11-22T10:02:26;3.72;;;2.70;;
62110;SDS011;48102;47.526;19.072;2023-11-22T10:05:31;5.62;;;3.25;;
62110;SDS011;48102;47.526;19.072;2023-11-22T10:08:34;4.57;;;2.78;;
62110;SDS011;48102;47.526;19.072;2023-11-22T10:11:39;2.92;;;2.45;;
62110;SDS011;48102;47.526;19.072;2023-11-22T10:14:46;4.05;;;2.97;;
62110;SDS011;48102;47.526;19.072;2023-11-22T10:17:54;4.37;;;3.05;;
62110;SDS011;48102;47.526;19.072;2023-11-22T10:21:03;7.03;;;2.72;;
62110;SDS011;48102;47.526;19.072;2023-11-22T10:24:06;4.05;;;2.50;;
62110;SDS011;48102;47.526;19.072;2023-11-22T10:27:12;2.60;;;2.40;;
62110;SDS011;48102;47.526;19.072;2023-11-22T10:30:15;4.35;;;2.58;;
62110;SDS011;48102;47.526;19.072;2023-11-22T10:33:18;3.42;;;2.67;;
62110;SDS011;48102;47.526;19.072;2023-11-22T10:36:22;4.65;;;3.10;;
62110;SDS011;48102;47.526;19.072;2023-11-22T10:42:29;5.28;;;3.90;;
62110;SDS011;48102;47.526;19.072;2023-11-22T10:45:32;5.25;;;4.18;;
62110;SDS011;48102;47.526;19.072;2023-11-22T10:48:35;5.05;;;4.25;;
62110;SDS011;48102;47.526;19.072;2023-11-22T10:54:44;4.85;;;4.20;;
62110;SDS011;48102;47.526;19.072;2023-11-22T10:57:54;6.60;;;4.15;;
62110;SDS011;48102;47.526;19.072;2023-11-22T11:01:03;5.82;;;4.28;;
62110;SDS011;48102;47.526;19.072;2023-11-22T11:04:09;4.70;;;4.15;;
62110;SDS011;48102;47.526;19.072;2023-11-22T11:07:20;4.90;;;3.87;;
62110;SDS011;48102;47.526;19.072;2023-11-22T11:10:27;5.12;;;3.70;;
62110;SDS011;48102;47.526;19.072;2023-11-22T11:13:31;6.70;;;4.35;;
62110;SDS011;48102;47.526;19.072;2023-11-22T11:16:35;10.55;;;4.15;;
62110;SDS011;48102;47.526;19.072;2023-11-22T11:19:41;5.53;;;4.62;;
62110;SDS011;48102;47.526;19.072;2023-11-22T11:22:46;5.18;;;4.20;;
62110;SDS011;48102;47.526;19.072;2023-11-22T11:25:50;7.00;;;4.20;;
62110;SDS011;48102;47.526;19.072;2023-11-22T11:28:54;6.85;;;4.65;;
62110;SDS011;48102;47.526;19.072;2023-11-22T11:35:01;9.70;;;4.95;;
62110;SDS011;48102;47.526;19.072;2023-11-22T11:38:06;7.95;;;6.07;;
62110;SDS011;48102;47.526;19.072;2023-11-22T11:41:11;7.22;;;5.10;;
62110;SDS011;48102;47.526;19.072;2023-11-22T11:44:16;6.62;;;5.18;;
62110;SDS011;48102;47.526;19.072;2023-11-22T11:47:22;5.80;;;4.65;;
62110;SDS011;48102;47.526;19.072;2023-11-22T11:50:25;6.50;;;4.85;;
62110;SDS011;48102;47.526;19.072;2023-11-22T11:53:29;9.73;;;5.10;;
62110;SDS011;48102;47.526;19.072;2023-11-22T11:56:34;8.55;;;5.10;;
62110;SDS011;48102;47.526;19.072;2023-11-22T11:59:38;6.32;;;5.05;;
62110;SDS011;48102;47.526;19.072;2023-11-22T12:02:45;8.60;;;5.32;;
62110;SDS011;48102;47.526;19.072;2023-11-22T12:05:48;11.35;;;5.60;;
62110;SDS011;48102;47.526;19.072;2023-11-22T12:08:54;5.82;;;5.20;;
62110;SDS011;48102;47.526;19.072;2023-11-22T12:15:05;11.95;;;5.78;;
62110;SDS011;48102;47.526;19.072;2023-11-22T12:18:14;6.50;;;5.07;;
62110;SDS011;48102;47.526;19.072;2023-11-22T12:21:18;7.97;;;5.65;;
62110;SDS011;48102;47.526;19.072;2023-11-22T12:24:23;8.50;;;6.03;;
62110;SDS011;48102;47.526;19.072;2023-11-22T12:27:26;6.47;;;5.45;;
62110;SDS011;48102;47.526;19.072;2023-11-22T12:33:37;8.88;;;6.28;;
62110;SDS011;48102;47.526;19.072;2023-11-22T12:36:43;7.87;;;5.82;;
62110;SDS011;48102;47.526;19.072;2023-11-22T12:39:49;8.50;;;6.50;;
62110;SDS011;48102;47.526;19.072;2023-11-22T12:42:55;8.90;;;6.65;;
62110;SDS011;48102;47.526;19.072;2023-11-22T12:46:02;8.90;;;6.90;;
62110;SDS011;48102;47.526;19.072;2023-11-22T12:49:06;13.15;;;7.07;;
62110;SDS011;48102;47.526;19.072;2023-11-22T12:52:09;7.80;;;6.20;;
62110;SDS011;48102;47.526;19.072;2023-11-22T12:58:15;8.60;;;7.15;;
62110;SDS011;48102;47.526;19.072;2023-11-22T13:01:20;8.50;;;6.32;;
62110;SDS011;48102;47.526;19.072;2023-11-22T13:04:26;7.80;;;5.90;;
62110;SDS011;48102;47.526;19.072;2023-11-22T13:07:31;9.52;;;6.90;;
62110;SDS011;48102;47.526;19.072;2023-11-22T13:10:34;8.48;;;6.80;;
62110;SDS011;48102;47.526;19.072;2023-11-22T13:13:38;7.40;;;6.15;;
62110;SDS011;48102;47.526;19.072;2023-11-22T13:16:41;9.25;;;6.93;;
62110;SDS011;48102;47.526;19.072;2023-11-22T13:19:45;8.63;;;6.37;;
62110;SDS011;48102;47.526;19.072;2023-11-22T13:22:52;8.88;;;7.35;;
62110;SDS011;48102;47.526;19.072;2023-11-22T13:25:55;10.30;;;7.18;;
62110;SDS011;48102;47.526;19.072;2023-11-22T13:28:58;9.65;;;7.60;;
62110;SDS011;48102;47.526;19.072;2023-11-22T13:32:01;9.65;;;7.47;;
62110;SDS011;48102;47.526;19.072;2023-11-22T13:35:04;9.85;;;7.60;;
62110;SDS011;48102;47.526;19.072;2023-11-22T13:38:15;10.18;;;7.82;;
62110;SDS011;48102;47.526;19.072;2023-11-22T13:41:18;8.88;;;7.18;;
62110;SDS011;48102;47.526;19.072;2023-11-22T13:44:21;9.82;;;7.30;;
62110;SDS011;48102;47.526;19.072;2023-11-22T13:47:24;9.00;;;7.85;;
62110;SDS011;48102;47.526;19.072;2023-11-22T13:53:30;8.35;;;6.60;;
62110;SDS011;48102;47.526;19.072;2023-11-22T13:56:38;8.48;;;7.18;;
62110;SDS011;48102;47.526;19.072;2023-11-22T13:59:40;8.45;;;7.15;;
62110;SDS011;48102;47.526;19.072;2023-11-22T14:02:45;9.40;;;6.78;;
62110;SDS011;48102;47.526;19.072;2023-11-22T14:05:49;8.15;;;6.62;;
62110;SDS011;48102;47.526;19.072;2023-11-22T14:08:52;8.73;;;6.72;;
62110;SDS011;48102;47.526;19.072;2023-11-22T14:11:56;9.15;;;6.97;;
62110;SDS011;48102;47.526;19.072;2023-11-22T14:14:59;8.18;;;6.65;;
62110;SDS011;48102;47.526;19.072;2023-11-22T14:18:03;6.75;;;6.15;;
62110;SDS011;48102;47.526;19.072;2023-11-22T14:21:06;8.40;;;5.65;;
62110;SDS011;48102;47.526;19.072;2023-11-22T14:24:10;9.10;;;5.72;;
62110;SDS011;48102;47.526;19.072;2023-11-22T14:27:13;6.62;;;5.57;;
62110;SDS011;48102;47.526;19.072;2023-11-22T14:30:16;6.35;;;5.68;;
62110;SDS011;48102;47.526;19.072;2023-11-22T14:33:20;7.87;;;5.15;;
62110;SDS011;48102;47.526;19.072;2023-11-22T14:36:24;7.03;;;5.32;;
62110;SDS011;48102;47.526;19.072;2023-11-22T14:39:28;7.87;;;5.53;;
62110;SDS011;48102;47.526;19.072;2023-11-22T14:42:32;8.38;;;5.10;;
62110;SDS011;48102;47.526;19.072;2023-11-22T14:45:35;6.00;;;4.82;;
62110;SDS011;48102;47.526;19.072;2023-11-22T14:48:39;9.85;;;4.30;;
62110;SDS011;48102;47.526;19.072;2023-11-22T14:51:42;6.82;;;5.15;;
62110;SDS011;48102;47.526;19.072;2023-11-22T14:54:46;6.10;;;4.30;;
62110;SDS011;48102;47.526;19.072;2023-11-22T14:57:51;8.18;;;5.25;;
62110;SDS011;48102;47.526;19.072;2023-11-22T15:01:00;8.10;;;5.03;;
62110;SDS011;48102;47.526;19.072;2023-11-22T15:04:03;7.75;;;4.70;;
62110;SDS011;48102;47.526;19.072;2023-11-22T15:07:08;8.15;;;4.87;;
62110;SDS011;48102;47.526;19.072;2023-11-22T15:10:10;6.45;;;4.40;;
62110;SDS011;48102;47.526;19.072;2023-11-22T15:13:14;7.32;;;4.18;;
62110;SDS011;48102;47.526;19.072;2023-11-22T15:16:20;5.78;;;4.28;;
62110;SDS011;48102;47.526;19.072;2023-11-22T15:19:23;6.78;;;4.50;;
62110;SDS011;48102;47.526;19.072;2023-11-22T15:22:26;4.95;;;3.87;;
62110;SDS011;48102;47.526;19.072;2023-11-22T15:28:32;6.03;;;4.47;;
62110;SDS011;48102;47.526;19.072;2023-11-22T15:31:38;4.93;;;3.55;;
62110;SDS011;48102;47.526;19.072;2023-11-22T15:34:43;4.35;;;3.60;;
62110;SDS011;48102;47.526;19.072;2023-11-22T15:37:49;10.90;;;4.10;;
62110;SDS011;48102;47.526;19.072;2023-11-22T15:40:52;6.95;;;4.20;;
62110;SDS011;48102;47.526;19.072;2023-11-22T15:43:57;5.60;;;4.12;;
62110;SDS011;48102;47.526;19.072;2023-11-22T15:47:00;6.80;;;3.70;;
62110;SDS011;48102;47.526;19.072;2023-11-22T15:50:08;5.00;;;3.25;;
62110;SDS011;48102;47.526;19.072;2023-11-22T15:53:13;5.55;;;3.83;;
62110;SDS011;48102;47.526;19.072;2023-11-22T15:59:18;4.97;;;3.10;;
62110;SDS011;48102;47.526;19.072;2023-11-22T16:05:24;9.17;;;4.20;;
62110;SDS011;48102;47.526;19.072;2023-11-22T16:08:28;9.23;;;3.87;;
62110;SDS011;48102;47.526;19.072;2023-11-22T16:11:32;5.43;;;4.10;;
62110;SDS011;48102;47.526;19.072;2023-11-22T16:14:35;7.43;;;4.78;;
62110;SDS011;48102;47.526;19.072;2023-11-22T16:17:39;5.18;;;4.03;;
62110;SDS011;48102;47.526;19.072;2023-11-22T16:23:45;12.88;;;5.35;;
62110;SDS011;48102;47.526;19.072;2023-11-22T16:26:48;8.30;;;5.40;;
62110;SDS011;48102;47.526;19.072;2023-11-22T16:29:51;7.85;;;5.68;;
